Alianca Brasil — PPSO — position and weather

sailwx.info

Track history (hours):
 
Tides and Currents Weather Stations Pressure Air Temp Water Temp Dewpoint Dewpoint Depression Visibility Wind Speed Wind Dir Waves Ship Positions

Alianca Brasil

Last reported at 2018-Aug-14 23:24 UTC. Time now 2018-Aug-14 23:42 UTC.
Position S 23°58' W 046°18'.

Length 255 m; draft 8.6 m.

Type: Cargo ship. MMSI: 710000872.

Date/timePositionNaut miles runAvg speedWind from/ knotsBaromVisibWave heightAir tempDewpointWater temp
2018-Aug-14 23:24S 23°58' W 046°18'0 0.0
2018-Aug-14 23:00S 23°58' W 046°18'0 0.0
2018-Aug-14 22:27S 23°58' W 046°18'0 0.0
2018-Aug-14 22:00S 23°58' W 046°18'0 0.0
2018-Aug-14 21:30S 23°58' W 046°18'0 0.0
2018-Aug-14 21:00S 23°58' W 046°18'0 0.0
2018-Aug-14 20:30S 23°58' W 046°18'0 0.0
2018-Aug-14 19:54S 23°58' W 046°18'0 0.0
2018-Aug-14 19:30S 23°58' W 046°18'0 0.0
2018-Aug-14 19:00S 23°58' W 046°18'0 0.0
2018-Aug-14 18:30S 23°58' W 046°18'0 0.0
2018-Aug-14 17:57S 23°58' W 046°18'0 0.0
2018-Aug-14 17:30S 23°58' W 046°18'1 2.9
2018-Aug-14 17:00S 23°59' W 046°18'4 7.8
2018-Aug-14 16:30S 24°02' W 046°20'4 8.5
2018-Aug-14 16:00S 24°05' W 046°17'4 7.0
2018-Aug-14 15:30S 24°07' W 046°13'3 6.0
2018-Aug-14 15:00S 24°08' W 046°10'0 0.0
2018-Aug-14 13:42S 24°08' W 046°10'0 0.0
2018-Aug-14 13:09S 24°08' W 046°10'0 0.0
2018-Aug-14 12:54S 24°08' W 046°10'0 0.0
2018-Aug-14 12:30S 24°08' W 046°10'0 0.0
2018-Aug-14 12:00S 24°08' W 046°10'0 0.0
2018-Aug-14 11:30S 24°08' W 046°10'0 0.0
2018-Aug-14 08:45S 24°08' W 046°10'0 0.0
2018-Aug-14 08:12S 24°08' W 046°10'0 0.1
2018-Aug-14 08:00S 24°08' W 046°10'0 0.0
2018-Aug-14 07:30S 24°08' W 046°10'0 0.0
2018-Aug-14 07:00S 24°08' W 046°10'0 0.0
2018-Aug-14 06:30S 24°08' W 046°10'0 0.0
2018-Aug-14 06:00S 24°08' W 046°10'0 0.0
2018-Aug-14 05:30S 24°08' W 046°10'0 0.0
2018-Aug-14 05:00S 24°08' W 046°10'0 0.0
2018-Aug-14 04:21S 24°08' W 046°10'0 0.0
2018-Aug-14 03:54S 24°08' W 046°10'0 0.0
2018-Aug-14 03:27S 24°08' W 046°10'0 0.0
2018-Aug-14 02:54S 24°08' W 046°10'0 0.0
2018-Aug-14 02:30S 24°08' W 046°10'0 0.0
2018-Aug-14 02:00S 24°08' W 046°10'0 0.0
2018-Aug-14 00:48S 24°08' W 046°10'0 0.0
2018-Aug-14 00:03S 24°08' W 046°10'0 0.0
2018-Aug-13 23:54S 24°08' W 046°10'0 0.0
2018-Aug-13 23:24S 24°08' W 046°10'0 0.0
2018-Aug-13 22:54S 24°08' W 046°10'0 0.0
2018-Aug-13 22:15S 24°08' W 046°10'0 0.1
2018-Aug-13 22:00S 24°08' W 046°10'0 0.0
2018-Aug-13 21:30S 24°08' W 046°10'0 0.0
2018-Aug-13 20:06S 24°08' W 046°10'0 0.0
2018-Aug-13 20:00S 24°08' W 046°10'0 0.0
2018-Aug-13 16:12S 24°08' W 046°10'0 0.0
2018-Aug-13 15:21S 24°08' W 046°10'0 0.0
2018-Aug-13 14:09S 24°08' W 046°10'0 0.0
2018-Aug-13 13:57S 24°08' W 046°10'0 0.1
2018-Aug-13 13:26S 24°08' W 046°10'1 2.9
2018-Aug-13 13:00S 24°07' W 046°09'1214.3
2018-Aug-13 12:11S 24°02' W 045°58'314.4
2018-Aug-13 12:00S 24°02' W 045°55'  
Track history (hours):
 
Tides and Currents Weather Stations Pressure Air Temp Water Temp Dewpoint Dewpoint Depression Visibility Wind Speed Wind Dir Waves Ship Positions

Alianca Brasil

Last reported at 2018-Aug-14 23:24 UTC. Time now 2018-Aug-14 23:42 UTC.
Position S 23°58' W 046°18'.

Length 255 m; draft 8.6 m.

Type: Cargo ship. MMSI: 710000872.

Date/timePositionNaut miles runAvg speedWind from/ knotsBaromVisibWave heightAir tempDewpointWater temp
2018-Aug-14 23:24S 23°58' W 046°18'0 0.0
2018-Aug-14 23:00S 23°58' W 046°18'0 0.0
2018-Aug-14 22:27S 23°58' W 046°18'0 0.0
2018-Aug-14 22:00S 23°58' W 046°18'0 0.0
2018-Aug-14 21:30S 23°58' W 046°18'0 0.0
2018-Aug-14 21:00S 23°58' W 046°18'0 0.0
2018-Aug-14 20:30S 23°58' W 046°18'0 0.0
2018-Aug-14 19:54S 23°58' W 046°18'0 0.0
2018-Aug-14 19:30S 23°58' W 046°18'0 0.0
2018-Aug-14 19:00S 23°58' W 046°18'0 0.0
2018-Aug-14 18:30S 23°58' W 046°18'0 0.0
2018-Aug-14 17:57S 23°58' W 046°18'0 0.0
2018-Aug-14 17:30S 23°58' W 046°18'1 2.9
2018-Aug-14 17:00S 23°59' W 046°18'4 7.8
2018-Aug-14 16:30S 24°02' W 046°20'4 8.5
2018-Aug-14 16:00S 24°05' W 046°17'4 7.0
2018-Aug-14 15:30S 24°07' W 046°13'3 6.0
2018-Aug-14 15:00S 24°08' W 046°10'0 0.0
2018-Aug-14 13:42S 24°08' W 046°10'0 0.0
2018-Aug-14 13:09S 24°08' W 046°10'0 0.0
2018-Aug-14 12:54S 24°08' W 046°10'0 0.0
2018-Aug-14 12:30S 24°08' W 046°10'0 0.0
2018-Aug-14 12:00S 24°08' W 046°10'0 0.0
2018-Aug-14 11:30S 24°08' W 046°10'0 0.0
2018-Aug-14 08:45S 24°08' W 046°10'0 0.0
2018-Aug-14 08:12S 24°08' W 046°10'0 0.1
2018-Aug-14 08:00S 24°08' W 046°10'0 0.0
2018-Aug-14 07:30S 24°08' W 046°10'0 0.0
2018-Aug-14 07:00S 24°08' W 046°10'0 0.0
2018-Aug-14 06:30S 24°08' W 046°10'0 0.0
2018-Aug-14 06:00S 24°08' W 046°10'0 0.0
2018-Aug-14 05:30S 24°08' W 046°10'0 0.0
2018-Aug-14 05:00S 24°08' W 046°10'0 0.0
2018-Aug-14 04:21S 24°08' W 046°10'0 0.0
2018-Aug-14 03:54S 24°08' W 046°10'0 0.0
2018-Aug-14 03:27S 24°08' W 046°10'0 0.0
2018-Aug-14 02:54S 24°08' W 046°10'0 0.0
2018-Aug-14 02:30S 24°08' W 046°10'0 0.0
2018-Aug-14 02:00S 24°08' W 046°10'0 0.0
2018-Aug-14 00:48S 24°08' W 046°10'0 0.0
2018-Aug-14 00:03S 24°08' W 046°10'0 0.0
2018-Aug-13 23:54S 24°08' W 046°10'0 0.0
2018-Aug-13 23:24S 24°08' W 046°10'0 0.0
2018-Aug-13 22:54S 24°08' W 046°10'0 0.0
2018-Aug-13 22:15S 24°08' W 046°10'0 0.1
2018-Aug-13 22:00S 24°08' W 046°10'0 0.0
2018-Aug-13 21:30S 24°08' W 046°10'0 0.0
2018-Aug-13 20:06S 24°08' W 046°10'0 0.0
2018-Aug-13 20:00S 24°08' W 046°10'0 0.0
2018-Aug-13 16:12S 24°08' W 046°10'0 0.0
2018-Aug-13 15:21S 24°08' W 046°10'0 0.0
2018-Aug-13 14:09S 24°08' W 046°10'0 0.0
2018-Aug-13 13:57S 24°08' W 046°10'0 0.1
2018-Aug-13 13:26S 24°08' W 046°10'1 2.9
2018-Aug-13 13:00S 24°07' W 046°09'1214.3
2018-Aug-13 12:11S 24°02' W 045°58'314.4
2018-Aug-13 12:00S 24°02' W 045°55'  

Dump ship's entire track history